Flight Briefing for CMB828

Departure Arrival
Daniel K Inouye International Airport (PHNL)
Click to view FAA NOTAMS
Wake Island Airfield (PWAK)
Click to view FAA NOTAMS
Departure Time Arrival Time
N/A N/A
Aircraft Distance
B757-200SF 1998nm
Departure METAR Arrival METAR
PHNL 271153Z 35006KT 10SM FEW022 SCT060 24/19 A3001 RMK AO2 SLP163 T02440194 10267 20244 58014 $ PWAK 271158Z AUTO 10005KT 9999 FEW014 SCT048 27/24 A2998 RMK AO2 LTG DSNT N RAB01E12 SLP159 P0000 60000 T02680241 10297 20268 403170253 50000 $
Suggested Route
KEOLA2 PUPPI 2200N/17000W 2200N/18000E 2100N/17000E AWK


View recent IFR Routes data
Notes
USTRANSCOM CONTRACT FLIGHT | LIMITED FUEL AVBL TO NON-DOD ACFT, TANKERING RCMD

Charts and Procedures

Charts for PHNL
No chart available
Charts for PWAK
No chart available

Windy.com Weather Map